sensor_id;sensor_type;location;lat;lon;timestamp;P1;durP1;ratioP1;P2;durP2;ratioP2
68082;SDS011;54870;50.336;3.506;2022-07-23T00:00:18;24.40;;;16.25;;
68082;SDS011;54870;50.336;3.506;2022-07-23T00:02:44;25.38;;;15.85;;
68082;SDS011;54870;50.336;3.506;2022-07-23T00:05:10;25.38;;;16.35;;
68082;SDS011;54870;50.336;3.506;2022-07-23T00:07:36;25.08;;;16.45;;
68082;SDS011;54870;50.336;3.506;2022-07-23T00:10:03;25.25;;;16.15;;
68082;SDS011;54870;50.336;3.506;2022-07-23T00:12:29;21.35;;;15.45;;
68082;SDS011;54870;50.336;3.506;2022-07-23T00:14:55;24.90;;;16.55;;
68082;SDS011;54870;50.336;3.506;2022-07-23T00:17:21;20.50;;;16.00;;
68082;SDS011;54870;50.336;3.506;2022-07-23T00:19:47;23.17;;;15.77;;
68082;SDS011;54870;50.336;3.506;2022-07-23T00:22:13;26.63;;;16.77;;
68082;SDS011;54870;50.336;3.506;2022-07-23T00:24:39;22.40;;;15.65;;
68082;SDS011;54870;50.336;3.506;2022-07-23T00:27:05;21.15;;;14.82;;
68082;SDS011;54870;50.336;3.506;2022-07-23T00:29:31;23.13;;;15.35;;
68082;SDS011;54870;50.336;3.506;2022-07-23T00:31:57;22.23;;;15.13;;
68082;SDS011;54870;50.336;3.506;2022-07-23T00:34:23;25.98;;;15.55;;
68082;SDS011;54870;50.336;3.506;2022-07-23T00:36:49;20.42;;;14.00;;
68082;SDS011;54870;50.336;3.506;2022-07-23T00:39:15;20.98;;;15.95;;
68082;SDS011;54870;50.336;3.506;2022-07-23T00:41:41;23.85;;;14.52;;
68082;SDS011;54870;50.336;3.506;2022-07-23T00:44:14;23.92;;;15.32;;
68082;SDS011;54870;50.336;3.506;2022-07-23T00:46:44;19.52;;;14.02;;
68082;SDS011;54870;50.336;3.506;2022-07-23T00:49:10;24.83;;;15.55;;
68082;SDS011;54870;50.336;3.506;2022-07-23T00:51:36;24.48;;;15.15;;
68082;SDS011;54870;50.336;3.506;2022-07-23T00:54:03;26.60;;;15.32;;
68082;SDS011;54870;50.336;3.506;2022-07-23T00:56:29;20.10;;;14.38;;
68082;SDS011;54870;50.336;3.506;2022-07-23T00:58:56;23.23;;;15.13;;
68082;SDS011;54870;50.336;3.506;2022-07-23T01:01:22;21.58;;;14.48;;
68082;SDS011;54870;50.336;3.506;2022-07-23T01:03:48;23.98;;;15.35;;
68082;SDS011;54870;50.336;3.506;2022-07-23T01:06:14;23.25;;;15.90;;
68082;SDS011;54870;50.336;3.506;2022-07-23T01:08:40;24.20;;;15.10;;
68082;SDS011;54870;50.336;3.506;2022-07-23T01:11:07;23.90;;;15.52;;
68082;SDS011;54870;50.336;3.506;2022-07-23T01:13:33;24.42;;;16.48;;
68082;SDS011;54870;50.336;3.506;2022-07-23T01:15:59;25.38;;;16.02;;
68082;SDS011;54870;50.336;3.506;2022-07-23T01:18:25;23.38;;;15.57;;
68082;SDS011;54870;50.336;3.506;2022-07-23T01:20:51;23.65;;;16.42;;
68082;SDS011;54870;50.336;3.506;2022-07-23T01:23:17;24.70;;;16.60;;
68082;SDS011;54870;50.336;3.506;2022-07-23T01:25:52;23.58;;;15.75;;
68082;SDS011;54870;50.336;3.506;2022-07-23T01:28:18;23.92;;;15.63;;
68082;SDS011;54870;50.336;3.506;2022-07-23T01:30:44;25.33;;;16.10;;
68082;SDS011;54870;50.336;3.506;2022-07-23T01:33:10;25.05;;;16.05;;
68082;SDS011;54870;50.336;3.506;2022-07-23T01:35:36;23.38;;;15.25;;
68082;SDS011;54870;50.336;3.506;2022-07-23T01:38:02;28.10;;;16.80;;
68082;SDS011;54870;50.336;3.506;2022-07-23T01:40:28;21.45;;;15.35;;
68082;SDS011;54870;50.336;3.506;2022-07-23T01:42:54;43.65;;;30.02;;
68082;SDS011;54870;50.336;3.506;2022-07-23T01:45:20;37.97;;;25.23;;
68082;SDS011;54870;50.336;3.506;2022-07-23T01:47:47;36.58;;;22.83;;
68082;SDS011;54870;50.336;3.506;2022-07-23T01:50:13;26.95;;;17.25;;
68082;SDS011;54870;50.336;3.506;2022-07-23T01:52:39;25.30;;;17.50;;
68082;SDS011;54870;50.336;3.506;2022-07-23T01:55:06;25.25;;;17.23;;
68082;SDS011;54870;50.336;3.506;2022-07-23T01:57:32;30.45;;;18.42;;
68082;SDS011;54870;50.336;3.506;2022-07-23T01:59:58;24.77;;;17.45;;
68082;SDS011;54870;50.336;3.506;2022-07-23T02:02:24;24.33;;;15.50;;
68082;SDS011;54870;50.336;3.506;2022-07-23T02:04:50;26.38;;;16.98;;
68082;SDS011;54870;50.336;3.506;2022-07-23T02:07:16;24.63;;;17.02;;
68082;SDS011;54870;50.336;3.506;2022-07-23T02:09:42;30.02;;;17.02;;
68082;SDS011;54870;50.336;3.506;2022-07-23T02:12:08;24.92;;;16.20;;
68082;SDS011;54870;50.336;3.506;2022-07-23T02:14:34;24.50;;;16.13;;
68082;SDS011;54870;50.336;3.506;2022-07-23T02:17:00;24.83;;;16.08;;
68082;SDS011;54870;50.336;3.506;2022-07-23T02:19:26;23.40;;;16.02;;
68082;SDS011;54870;50.336;3.506;2022-07-23T02:21:52;25.45;;;17.48;;
68082;SDS011;54870;50.336;3.506;2022-07-23T02:24:19;26.35;;;17.42;;
68082;SDS011;54870;50.336;3.506;2022-07-23T02:26:45;30.13;;;17.23;;
68082;SDS011;54870;50.336;3.506;2022-07-23T02:29:11;27.40;;;16.73;;
68082;SDS011;54870;50.336;3.506;2022-07-23T02:31:37;24.80;;;16.77;;
68082;SDS011;54870;50.336;3.506;2022-07-23T02:34:03;23.55;;;16.95;;
68082;SDS011;54870;50.336;3.506;2022-07-23T02:36:30;26.50;;;17.50;;
68082;SDS011;54870;50.336;3.506;2022-07-23T02:38:56;24.30;;;17.25;;
68082;SDS011;54870;50.336;3.506;2022-07-23T02:41:22;25.77;;;16.80;;
68082;SDS011;54870;50.336;3.506;2022-07-23T02:43:48;28.02;;;18.23;;
68082;SDS011;54870;50.336;3.506;2022-07-23T02:46:14;26.73;;;17.70;;
68082;SDS011;54870;50.336;3.506;2022-07-23T02:48:40;27.63;;;17.85;;
68082;SDS011;54870;50.336;3.506;2022-07-23T02:51:06;29.30;;;17.63;;
68082;SDS011;54870;50.336;3.506;2022-07-23T02:53:32;26.85;;;17.83;;
68082;SDS011;54870;50.336;3.506;2022-07-23T02:55:58;25.30;;;17.00;;
68082;SDS011;54870;50.336;3.506;2022-07-23T02:58:24;23.23;;;16.88;;
68082;SDS011;54870;50.336;3.506;2022-07-23T03:00:51;24.23;;;16.75;;
68082;SDS011;54870;50.336;3.506;2022-07-23T03:03:17;26.98;;;17.60;;
68082;SDS011;54870;50.336;3.506;2022-07-23T03:05:43;24.45;;;16.92;;
68082;SDS011;54870;50.336;3.506;2022-07-23T03:08:09;26.23;;;17.20;;
68082;SDS011;54870;50.336;3.506;2022-07-23T03:10:35;28.95;;;17.77;;
68082;SDS011;54870;50.336;3.506;2022-07-23T03:13:01;27.08;;;17.20;;
68082;SDS011;54870;50.336;3.506;2022-07-23T03:15:27;24.60;;;17.17;;
68082;SDS011;54870;50.336;3.506;2022-07-23T03:17:53;24.08;;;16.08;;
68082;SDS011;54870;50.336;3.506;2022-07-23T03:20:20;25.77;;;16.90;;
68082;SDS011;54870;50.336;3.506;2022-07-23T03:22:46;53.45;;;35.63;;
68082;SDS011;54870;50.336;3.506;2022-07-23T03:25:11;46.10;;;28.27;;
68082;SDS011;54870;50.336;3.506;2022-07-23T03:27:37;28.10;;;17.70;;
68082;SDS011;54870;50.336;3.506;2022-07-23T03:30:04;29.33;;;17.38;;
68082;SDS011;54870;50.336;3.506;2022-07-23T03:32:30;29.75;;;17.10;;
68082;SDS011;54870;50.336;3.506;2022-07-23T03:34:56;30.10;;;17.13;;
68082;SDS011;54870;50.336;3.506;2022-07-23T03:37:22;27.92;;;17.52;;
68082;SDS011;54870;50.336;3.506;2022-07-23T03:39:48;25.48;;;16.65;;
68082;SDS011;54870;50.336;3.506;2022-07-23T03:42:14;27.27;;;16.85;;
68082;SDS011;54870;50.336;3.506;2022-07-23T03:44:40;28.05;;;16.45;;
68082;SDS011;54870;50.336;3.506;2022-07-23T03:47:06;23.70;;;15.82;;
68082;SDS011;54870;50.336;3.506;2022-07-23T03:49:33;23.08;;;15.38;;
68082;SDS011;54870;50.336;3.506;2022-07-23T03:51:59;25.40;;;16.70;;
68082;SDS011;54870;50.336;3.506;2022-07-23T03:54:25;26.67;;;16.15;;
68082;SDS011;54870;50.336;3.506;2022-07-23T03:56:51;24.30;;;15.82;;
68082;SDS011;54870;50.336;3.506;2022-07-23T03:59:17;26.63;;;16.88;;
68082;SDS011;54870;50.336;3.506;2022-07-23T04:01:43;23.08;;;15.85;;
68082;SDS011;54870;50.336;3.506;2022-07-23T04:04:09;26.05;;;16.08;;
68082;SDS011;54870;50.336;3.506;2022-07-23T04:06:35;25.00;;;16.33;;
68082;SDS011;54870;50.336;3.506;2022-07-23T04:09:02;31.40;;;17.17;;
68082;SDS011;54870;50.336;3.506;2022-07-23T04:11:28;25.05;;;16.10;;
68082;SDS011;54870;50.336;3.506;2022-07-23T04:13:54;26.42;;;16.30;;
68082;SDS011;54870;50.336;3.506;2022-07-23T04:16:20;24.88;;;15.77;;
68082;SDS011;54870;50.336;3.506;2022-07-23T04:18:46;26.35;;;17.02;;
68082;SDS011;54870;50.336;3.506;2022-07-23T04:21:12;41.25;;;26.60;;
68082;SDS011;54870;50.336;3.506;2022-07-23T04:23:38;52.60;;;32.47;;
68082;SDS011;54870;50.336;3.506;2022-07-23T04:26:04;28.00;;;17.08;;
68082;SDS011;54870;50.336;3.506;2022-07-23T04:28:30;24.85;;;16.58;;
68082;SDS011;54870;50.336;3.506;2022-07-23T04:30:56;28.20;;;15.85;;
68082;SDS011;54870;50.336;3.506;2022-07-23T04:33:22;25.90;;;17.23;;
68082;SDS011;54870;50.336;3.506;2022-07-23T04:35:48;26.63;;;16.15;;
68082;SDS011;54870;50.336;3.506;2022-07-23T04:38:14;26.05;;;16.05;;
68082;SDS011;54870;50.336;3.506;2022-07-23T04:40:40;26.15;;;16.05;;
68082;SDS011;54870;50.336;3.506;2022-07-23T04:43:06;25.67;;;15.93;;
68082;SDS011;54870;50.336;3.506;2022-07-23T04:45:32;24.45;;;15.30;;
68082;SDS011;54870;50.336;3.506;2022-07-23T04:47:58;26.08;;;16.13;;
68082;SDS011;54870;50.336;3.506;2022-07-23T04:50:24;28.98;;;15.68;;
68082;SDS011;54870;50.336;3.506;2022-07-23T04:52:50;26.73;;;15.70;;
68082;SDS011;54870;50.336;3.506;2022-07-23T04:55:16;21.98;;;15.20;;
68082;SDS011;54870;50.336;3.506;2022-07-23T04:57:43;25.98;;;16.27;;
68082;SDS011;54870;50.336;3.506;2022-07-23T05:00:09;25.17;;;16.10;;
68082;SDS011;54870;50.336;3.506;2022-07-23T05:02:35;24.02;;;16.13;;
68082;SDS011;54870;50.336;3.506;2022-07-23T05:05:01;27.70;;;16.50;;
68082;SDS011;54870;50.336;3.506;2022-07-23T05:07:27;27.10;;;16.60;;
68082;SDS011;54870;50.336;3.506;2022-07-23T05:09:53;25.75;;;16.98;;
68082;SDS011;54870;50.336;3.506;2022-07-23T05:12:19;28.00;;;17.13;;
68082;SDS011;54870;50.336;3.506;2022-07-23T05:14:45;25.77;;;16.33;;
68082;SDS011;54870;50.336;3.506;2022-07-23T05:17:11;26.17;;;17.05;;
68082;SDS011;54870;50.336;3.506;2022-07-23T05:19:37;24.52;;;16.42;;
68082;SDS011;54870;50.336;3.506;2022-07-23T05:22:03;29.05;;;16.90;;
68082;SDS011;54870;50.336;3.506;2022-07-23T05:24:29;26.58;;;16.13;;
68082;SDS011;54870;50.336;3.506;2022-07-23T05:26:55;27.05;;;16.55;;
68082;SDS011;54870;50.336;3.506;2022-07-23T05:29:21;28.00;;;17.35;;
68082;SDS011;54870;50.336;3.506;2022-07-23T05:31:47;28.10;;;17.58;;
68082;SDS011;54870;50.336;3.506;2022-07-23T05:34:13;27.90;;;17.35;;
68082;SDS011;54870;50.336;3.506;2022-07-23T05:36:39;27.55;;;17.77;;
68082;SDS011;54870;50.336;3.506;2022-07-23T05:39:05;29.10;;;17.95;;
68082;SDS011;54870;50.336;3.506;2022-07-23T05:41:31;28.65;;;17.30;;
68082;SDS011;54870;50.336;3.506;2022-07-23T05:43:57;26.17;;;17.10;;
68082;SDS011;54870;50.336;3.506;2022-07-23T05:46:23;28.42;;;17.17;;
68082;SDS011;54870;50.336;3.506;2022-07-23T05:48:49;26.45;;;17.45;;
68082;SDS011;54870;50.336;3.506;2022-07-23T05:51:19;29.02;;;17.48;;
68082;SDS011;54870;50.336;3.506;2022-07-23T05:53:46;26.98;;;17.52;;
68082;SDS011;54870;50.336;3.506;2022-07-23T05:56:12;31.80;;;18.40;;
68082;SDS011;54870;50.336;3.506;2022-07-23T05:58:38;28.13;;;17.48;;
68082;SDS011;54870;50.336;3.506;2022-07-23T06:01:04;27.42;;;17.67;;
68082;SDS011;54870;50.336;3.506;2022-07-23T06:03:30;26.23;;;17.48;;
68082;SDS011;54870;50.336;3.506;2022-07-23T06:05:56;29.58;;;18.58;;
68082;SDS011;54870;50.336;3.506;2022-07-23T06:08:22;27.60;;;17.02;;
68082;SDS011;54870;50.336;3.506;2022-07-23T06:10:48;25.48;;;17.45;;
68082;SDS011;54870;50.336;3.506;2022-07-23T06:13:14;26.50;;;17.15;;
68082;SDS011;54870;50.336;3.506;2022-07-23T06:15:43;27.90;;;17.60;;
68082;SDS011;54870;50.336;3.506;2022-07-23T06:18:09;26.95;;;17.77;;
68082;SDS011;54870;50.336;3.506;2022-07-23T06:20:35;28.73;;;17.58;;
68082;SDS011;54870;50.336;3.506;2022-07-23T06:23:01;27.95;;;17.20;;
68082;SDS011;54870;50.336;3.506;2022-07-23T06:25:27;25.15;;;16.50;;
68082;SDS011;54870;50.336;3.506;2022-07-23T06:27:53;25.77;;;16.15;;
68082;SDS011;54870;50.336;3.506;2022-07-23T06:30:19;27.02;;;16.13;;
68082;SDS011;54870;50.336;3.506;2022-07-23T06:32:46;25.05;;;15.88;;
68082;SDS011;54870;50.336;3.506;2022-07-23T06:35:12;23.80;;;16.38;;
68082;SDS011;54870;50.336;3.506;2022-07-23T06:37:38;25.75;;;15.30;;
68082;SDS011;54870;50.336;3.506;2022-07-23T06:40:04;24.95;;;16.00;;
68082;SDS011;54870;50.336;3.506;2022-07-23T06:42:30;26.45;;;16.00;;
68082;SDS011;54870;50.336;3.506;2022-07-23T06:44:56;25.48;;;15.32;;
68082;SDS011;54870;50.336;3.506;2022-07-23T06:47:23;24.50;;;14.63;;
68082;SDS011;54870;50.336;3.506;2022-07-23T06:49:49;28.77;;;17.98;;
68082;SDS011;54870;50.336;3.506;2022-07-23T06:52:15;26.40;;;17.63;;
68082;SDS011;54870;50.336;3.506;2022-07-23T06:54:41;25.95;;;16.98;;
68082;SDS011;54870;50.336;3.506;2022-07-23T06:57:07;27.02;;;15.43;;
68082;SDS011;54870;50.336;3.506;2022-07-23T06:59:33;25.73;;;15.02;;
68082;SDS011;54870;50.336;3.506;2022-07-23T07:02:01;21.50;;;15.43;;
68082;SDS011;54870;50.336;3.506;2022-07-23T07:04:27;26.17;;;15.38;;
68082;SDS011;54870;50.336;3.506;2022-07-23T07:06:53;24.20;;;15.35;;
68082;SDS011;54870;50.336;3.506;2022-07-23T07:09:19;24.30;;;14.40;;
68082;SDS011;54870;50.336;3.506;2022-07-23T07:11:45;22.92;;;14.85;;
68082;SDS011;54870;50.336;3.506;2022-07-23T07:14:11;22.35;;;14.55;;
68082;SDS011;54870;50.336;3.506;2022-07-23T07:16:37;24.50;;;15.02;;
68082;SDS011;54870;50.336;3.506;2022-07-23T07:19:03;23.45;;;14.68;;
68082;SDS011;54870;50.336;3.506;2022-07-23T07:21:29;20.88;;;14.50;;
68082;SDS011;54870;50.336;3.506;2022-07-23T07:23:55;25.02;;;15.45;;
68082;SDS011;54870;50.336;3.506;2022-07-23T07:26:21;22.40;;;14.25;;
68082;SDS011;54870;50.336;3.506;2022-07-23T07:28:47;24.27;;;14.77;;
68082;SDS011;54870;50.336;3.506;2022-07-23T07:31:13;22.05;;;13.95;;
68082;SDS011;54870;50.336;3.506;2022-07-23T07:33:39;20.42;;;13.82;;
68082;SDS011;54870;50.336;3.506;2022-07-23T07:36:05;22.70;;;14.60;;
68082;SDS011;54870;50.336;3.506;2022-07-23T07:38:31;19.75;;;13.20;;
68082;SDS011;54870;50.336;3.506;2022-07-23T07:40:57;23.45;;;14.32;;
68082;SDS011;54870;50.336;3.506;2022-07-23T07:43:23;23.02;;;14.27;;
68082;SDS011;54870;50.336;3.506;2022-07-23T07:45:49;21.67;;;13.98;;
68082;SDS011;54870;50.336;3.506;2022-07-23T07:48:15;20.73;;;12.80;;
68082;SDS011;54870;50.336;3.506;2022-07-23T07:50:41;23.15;;;13.23;;
68082;SDS011;54870;50.336;3.506;2022-07-23T07:53:07;22.80;;;13.25;;
68082;SDS011;54870;50.336;3.506;2022-07-23T07:55:34;19.67;;;12.95;;
68082;SDS011;54870;50.336;3.506;2022-07-23T07:58:00;19.75;;;13.57;;
68082;SDS011;54870;50.336;3.506;2022-07-23T08:00:26;21.08;;;12.70;;
68082;SDS011;54870;50.336;3.506;2022-07-23T08:02:53;21.02;;;12.73;;
68082;SDS011;54870;50.336;3.506;2022-07-23T08:05:23;21.88;;;14.38;;
68082;SDS011;54870;50.336;3.506;2022-07-23T08:07:49;18.65;;;13.15;;
68082;SDS011;54870;50.336;3.506;2022-07-23T08:10:15;21.10;;;13.45;;
68082;SDS011;54870;50.336;3.506;2022-07-23T08:12:42;22.17;;;12.63;;
68082;SDS011;54870;50.336;3.506;2022-07-23T08:15:10;20.25;;;13.43;;
68082;SDS011;54870;50.336;3.506;2022-07-23T08:17:36;19.80;;;12.45;;
68082;SDS011;54870;50.336;3.506;2022-07-23T08:20:03;18.42;;;13.25;;
68082;SDS011;54870;50.336;3.506;2022-07-23T08:25:15;21.73;;;13.65;;
68082;SDS011;54870;50.336;3.506;2022-07-23T08:27:41;23.75;;;13.88;;
68082;SDS011;54870;50.336;3.506;2022-07-23T08:30:08;21.83;;;13.43;;
68082;SDS011;54870;50.336;3.506;2022-07-23T08:32:47;18.70;;;13.57;;
68082;SDS011;54870;50.336;3.506;2022-07-23T08:35:13;23.15;;;13.43;;
68082;SDS011;54870;50.336;3.506;2022-07-23T08:37:39;23.25;;;14.07;;
68082;SDS011;54870;50.336;3.506;2022-07-23T08:40:05;21.30;;;13.27;;
68082;SDS011;54870;50.336;3.506;2022-07-23T08:42:32;22.83;;;12.98;;
68082;SDS011;54870;50.336;3.506;2022-07-23T08:45:00;23.10;;;13.45;;
68082;SDS011;54870;50.336;3.506;2022-07-23T08:47:27;19.30;;;13.13;;
68082;SDS011;54870;50.336;3.506;2022-07-23T08:49:54;20.85;;;13.57;;
68082;SDS011;54870;50.336;3.506;2022-07-23T08:52:20;23.70;;;13.90;;
68082;SDS011;54870;50.336;3.506;2022-07-23T08:54:46;21.77;;;13.52;;
68082;SDS011;54870;50.336;3.506;2022-07-23T08:57:12;19.80;;;12.85;;
68082;SDS011;54870;50.336;3.506;2022-07-23T08:59:38;20.42;;;12.57;;
68082;SDS011;54870;50.336;3.506;2022-07-23T09:02:04;20.85;;;12.60;;
68082;SDS011;54870;50.336;3.506;2022-07-23T09:04:30;18.15;;;13.00;;
68082;SDS011;54870;50.336;3.506;2022-07-23T09:06:57;19.63;;;13.35;;
68082;SDS011;54870;50.336;3.506;2022-07-23T09:09:23;16.60;;;11.98;;
68082;SDS011;54870;50.336;3.506;2022-07-23T09:12:02;17.60;;;11.85;;
68082;SDS011;54870;50.336;3.506;2022-07-23T09:14:35;18.40;;;12.30;;
68082;SDS011;54870;50.336;3.506;2022-07-23T09:17:15;16.67;;;11.30;;
68082;SDS011;54870;50.336;3.506;2022-07-23T09:19:42;14.80;;;9.40;;
68082;SDS011;54870;50.336;3.506;2022-07-23T09:22:18;16.48;;;9.13;;
68082;SDS011;54870;50.336;3.506;2022-07-23T09:30:14;13.10;;;9.10;;
68082;SDS011;54870;50.336;3.506;2022-07-23T09:32:40;16.02;;;11.02;;
68082;SDS011;54870;50.336;3.506;2022-07-23T09:35:06;15.55;;;10.43;;
68082;SDS011;54870;50.336;3.506;2022-07-23T09:37:33;15.25;;;10.05;;
68082;SDS011;54870;50.336;3.506;2022-07-23T09:40:09;16.70;;;9.38;;
68082;SDS011;54870;50.336;3.506;2022-07-23T09:42:41;14.68;;;8.07;;
68082;SDS011;54870;50.336;3.506;2022-07-23T09:45:20;11.85;;;7.90;;
68082;SDS011;54870;50.336;3.506;2022-07-23T09:47:46;10.85;;;7.22;;
68082;SDS011;54870;50.336;3.506;2022-07-23T09:50:12;15.05;;;8.50;;
68082;SDS011;54870;50.336;3.506;2022-07-23T09:52:48;13.13;;;7.78;;
68082;SDS011;54870;50.336;3.506;2022-07-23T09:55:18;16.02;;;8.55;;
68082;SDS011;54870;50.336;3.506;2022-07-23T09:57:44;14.52;;;8.50;;
68082;SDS011;54870;50.336;3.506;2022-07-23T10:00:12;13.63;;;8.50;;
68082;SDS011;54870;50.336;3.506;2022-07-23T10:02:39;12.82;;;8.45;;
68082;SDS011;54870;50.336;3.506;2022-07-23T10:05:05;13.68;;;8.75;;
68082;SDS011;54870;50.336;3.506;2022-07-23T10:07:34;14.65;;;8.52;;
68082;SDS011;54870;50.336;3.506;2022-07-23T10:10:00;10.98;;;7.60;;
68082;SDS011;54870;50.336;3.506;2022-07-23T10:12:26;12.23;;;7.93;;
68082;SDS011;54870;50.336;3.506;2022-07-23T10:15:02;13.32;;;7.57;;
68082;SDS011;54870;50.336;3.506;2022-07-23T10:17:29;15.45;;;8.68;;
68082;SDS011;54870;50.336;3.506;2022-07-23T10:19:56;15.55;;;8.88;;
68082;SDS011;54870;50.336;3.506;2022-07-23T10:22:22;14.20;;;8.00;;
68082;SDS011;54870;50.336;3.506;2022-07-23T10:27:22;10.93;;;7.40;;
68082;SDS011;54870;50.336;3.506;2022-07-23T10:30:03;10.32;;;7.55;;
68082;SDS011;54870;50.336;3.506;2022-07-23T10:35:22;12.90;;;7.25;;
68082;SDS011;54870;50.336;3.506;2022-07-23T10:37:54;11.35;;;7.53;;
68082;SDS011;54870;50.336;3.506;2022-07-23T10:40:22;10.57;;;6.93;;
68082;SDS011;54870;50.336;3.506;2022-07-23T10:42:49;12.05;;;7.07;;
68082;SDS011;54870;50.336;3.506;2022-07-23T10:45:24;12.13;;;6.63;;
68082;SDS011;54870;50.336;3.506;2022-07-23T10:47:51;11.98;;;7.10;;
68082;SDS011;54870;50.336;3.506;2022-07-23T10:50:18;11.90;;;7.63;;
68082;SDS011;54870;50.336;3.506;2022-07-23T10:57:54;10.73;;;6.50;;
68082;SDS011;54870;50.336;3.506;2022-07-23T11:00:28;9.98;;;6.68;;
68082;SDS011;54870;50.336;3.506;2022-07-23T11:02:55;9.23;;;6.00;;
68082;SDS011;54870;50.336;3.506;2022-07-23T11:10:38;10.15;;;6.75;;
68082;SDS011;54870;50.336;3.506;2022-07-23T11:32:23;9.13;;;6.30;;
68082;SDS011;54870;50.336;3.506;2022-07-23T11:34:49;8.93;;;6.32;;
68082;SDS011;54870;50.336;3.506;2022-07-23T11:37:33;8.80;;;5.80;;
68082;SDS011;54870;50.336;3.506;2022-07-23T11:40:04;12.10;;;5.95;;
68082;SDS011;54870;50.336;3.506;2022-07-23T11:42:31;10.27;;;6.95;;
68082;SDS011;54870;50.336;3.506;2022-07-23T11:44:57;9.88;;;6.57;;
68082;SDS011;54870;50.336;3.506;2022-07-23T11:47:24;16.30;;;10.23;;
68082;SDS011;54870;50.336;3.506;2022-07-23T11:49:54;22.23;;;16.63;;
68082;SDS011;54870;50.336;3.506;2022-07-23T11:52:21;12.23;;;8.40;;
68082;SDS011;54870;50.336;3.506;2022-07-23T11:54:51;9.93;;;6.47;;
68082;SDS011;54870;50.336;3.506;2022-07-23T11:57:17;14.02;;;6.55;;
68082;SDS011;54870;50.336;3.506;2022-07-23T11:59:45;11.82;;;6.30;;
68082;SDS011;54870;50.336;3.506;2022-07-23T12:02:11;10.27;;;5.53;;
68082;SDS011;54870;50.336;3.506;2022-07-23T12:07:04;9.80;;;5.45;;
68082;SDS011;54870;50.336;3.506;2022-07-23T12:09:30;11.70;;;7.78;;
68082;SDS011;54870;50.336;3.506;2022-07-23T12:11:57;9.45;;;5.28;;
68082;SDS011;54870;50.336;3.506;2022-07-23T12:14:23;10.30;;;5.53;;
68082;SDS011;54870;50.336;3.506;2022-07-23T12:17:08;8.27;;;5.60;;
68082;SDS011;54870;50.336;3.506;2022-07-23T12:19:34;9.93;;;4.63;;
68082;SDS011;54870;50.336;3.506;2022-07-23T12:22:01;11.32;;;4.72;;
68082;SDS011;54870;50.336;3.506;2022-07-23T12:24:27;10.75;;;5.30;;
68082;SDS011;54870;50.336;3.506;2022-07-23T12:27:09;8.57;;;4.80;;
68082;SDS011;54870;50.336;3.506;2022-07-23T12:29:36;8.00;;;4.50;;
68082;SDS011;54870;50.336;3.506;2022-07-23T12:32:02;9.15;;;5.13;;
68082;SDS011;54870;50.336;3.506;2022-07-23T12:34:40;10.52;;;4.88;;
68082;SDS011;54870;50.336;3.506;2022-07-23T12:37:06;7.45;;;4.75;;
68082;SDS011;54870;50.336;3.506;2022-07-23T12:39:32;8.20;;;5.28;;
68082;SDS011;54870;50.336;3.506;2022-07-23T12:41:58;9.98;;;6.93;;
68082;SDS011;54870;50.336;3.506;2022-07-23T12:44:24;7.60;;;4.70;;
68082;SDS011;54870;50.336;3.506;2022-07-23T12:46:53;9.82;;;6.38;;
68082;SDS011;54870;50.336;3.506;2022-07-23T12:49:26;9.45;;;5.20;;
68082;SDS011;54870;50.336;3.506;2022-07-23T12:51:53;13.15;;;10.15;;
68082;SDS011;54870;50.336;3.506;2022-07-23T12:54:19;9.68;;;5.70;;
68082;SDS011;54870;50.336;3.506;2022-07-23T12:56:53;8.98;;;5.03;;
68082;SDS011;54870;50.336;3.506;2022-07-23T12:59:19;9.48;;;4.90;;
68082;SDS011;54870;50.336;3.506;2022-07-23T13:01:52;6.78;;;4.70;;
68082;SDS011;54870;50.336;3.506;2022-07-23T13:04:20;8.07;;;4.70;;
68082;SDS011;54870;50.336;3.506;2022-07-23T13:06:48;8.70;;;4.90;;
68082;SDS011;54870;50.336;3.506;2022-07-23T13:09:17;8.48;;;5.38;;
68082;SDS011;54870;50.336;3.506;2022-07-23T13:11:43;8.63;;;4.97;;
68082;SDS011;54870;50.336;3.506;2022-07-23T13:14:10;7.45;;;5.00;;
68082;SDS011;54870;50.336;3.506;2022-07-23T13:16:37;8.95;;;5.00;;
68082;SDS011;54870;50.336;3.506;2022-07-23T13:19:02;6.32;;;4.38;;
68082;SDS011;54870;50.336;3.506;2022-07-23T13:21:29;8.27;;;4.82;;
68082;SDS011;54870;50.336;3.506;2022-07-23T13:23:55;10.02;;;4.10;;
68082;SDS011;54870;50.336;3.506;2022-07-23T13:26:21;7.75;;;4.45;;
68082;SDS011;54870;50.336;3.506;2022-07-23T13:28:47;5.35;;;3.88;;
68082;SDS011;54870;50.336;3.506;2022-07-23T13:31:15;8.05;;;4.80;;
68082;SDS011;54870;50.336;3.506;2022-07-23T13:33:41;8.32;;;4.40;;
68082;SDS011;54870;50.336;3.506;2022-07-23T13:36:07;6.45;;;4.07;;
68082;SDS011;54870;50.336;3.506;2022-07-23T13:38:33;14.40;;;5.18;;
68082;SDS011;54870;50.336;3.506;2022-07-23T13:40:59;8.88;;;3.97;;
68082;SDS011;54870;50.336;3.506;2022-07-23T13:43:25;8.55;;;4.50;;
68082;SDS011;54870;50.336;3.506;2022-07-23T13:45:52;6.22;;;4.30;;
68082;SDS011;54870;50.336;3.506;2022-07-23T13:48:18;7.22;;;5.28;;
68082;SDS011;54870;50.336;3.506;2022-07-23T13:50:45;11.93;;;7.60;;
68082;SDS011;54870;50.336;3.506;2022-07-23T13:53:12;15.68;;;10.52;;
68082;SDS011;54870;50.336;3.506;2022-07-23T13:55:39;9.68;;;5.88;;
68082;SDS011;54870;50.336;3.506;2022-07-23T13:58:05;9.00;;;4.90;;
68082;SDS011;54870;50.336;3.506;2022-07-23T14:00:32;10.75;;;4.20;;
68082;SDS011;54870;50.336;3.506;2022-07-23T14:02:58;7.03;;;4.38;;
68082;SDS011;54870;50.336;3.506;2022-07-23T14:05:25;6.63;;;4.28;;
68082;SDS011;54870;50.336;3.506;2022-07-23T14:07:51;8.82;;;4.07;;
68082;SDS011;54870;50.336;3.506;2022-07-23T14:10:18;7.78;;;4.22;;
68082;SDS011;54870;50.336;3.506;2022-07-23T14:12:45;12.02;;;4.82;;
68082;SDS011;54870;50.336;3.506;2022-07-23T14:15:12;5.47;;;4.00;;
68082;SDS011;54870;50.336;3.506;2022-07-23T14:17:40;9.50;;;4.47;;
68082;SDS011;54870;50.336;3.506;2022-07-23T14:20:08;7.10;;;4.10;;
68082;SDS011;54870;50.336;3.506;2022-07-23T14:22:34;6.25;;;3.92;;
68082;SDS011;54870;50.336;3.506;2022-07-23T14:25:00;4.55;;;3.78;;
68082;SDS011;54870;50.336;3.506;2022-07-23T14:27:27;7.78;;;4.40;;
68082;SDS011;54870;50.336;3.506;2022-07-23T14:29:53;10.80;;;4.65;;
68082;SDS011;54870;50.336;3.506;2022-07-23T14:32:19;6.93;;;4.13;;
68082;SDS011;54870;50.336;3.506;2022-07-23T14:34:46;5.35;;;3.72;;
68082;SDS011;54870;50.336;3.506;2022-07-23T14:37:12;6.43;;;3.95;;
68082;SDS011;54870;50.336;3.506;2022-07-23T14:39:38;7.78;;;4.10;;
68082;SDS011;54870;50.336;3.506;2022-07-23T14:42:05;6.40;;;4.20;;
68082;SDS011;54870;50.336;3.506;2022-07-23T14:44:31;6.38;;;4.50;;
68082;SDS011;54870;50.336;3.506;2022-07-23T14:46:57;6.20;;;4.13;;
68082;SDS011;54870;50.336;3.506;2022-07-23T14:49:24;11.07;;;8.05;;
68082;SDS011;54870;50.336;3.506;2022-07-23T14:51:51;7.95;;;5.85;;
68082;SDS011;54870;50.336;3.506;2022-07-23T14:54:17;8.75;;;4.72;;
68082;SDS011;54870;50.336;3.506;2022-07-23T14:56:44;12.10;;;6.65;;
68082;SDS011;54870;50.336;3.506;2022-07-23T14:59:10;18.92;;;10.35;;
68082;SDS011;54870;50.336;3.506;2022-07-23T15:01:36;6.07;;;4.47;;
68082;SDS011;54870;50.336;3.506;2022-07-23T15:04:03;7.18;;;3.83;;
68082;SDS011;54870;50.336;3.506;2022-07-23T15:06:29;6.30;;;4.30;;
68082;SDS011;54870;50.336;3.506;2022-07-23T15:08:55;6.47;;;4.07;;
68082;SDS011;54870;50.336;3.506;2022-07-23T15:11:21;9.75;;;5.28;;